createdAt,value
2018-06-08T00:01:14.981Z,18.50
2018-06-08T00:03:43.321Z,18.60
2018-06-08T00:06:11.650Z,18.60
2018-06-08T00:08:39.966Z,18.60
2018-06-08T00:11:08.278Z,18.60
2018-06-08T00:13:36.583Z,18.60
2018-06-08T00:16:04.905Z,18.60
2018-06-08T00:18:33.216Z,18.60
2018-06-08T00:21:01.522Z,18.60
2018-06-08T00:23:29.817Z,18.60
2018-06-08T00:25:58.142Z,18.60
2018-06-08T00:28:26.439Z,18.60
2018-06-08T00:30:54.755Z,18.60
2018-06-08T00:33:23.069Z,18.60
2018-06-08T00:35:51.397Z,18.60
2018-06-08T00:38:19.716Z,18.60
2018-06-08T00:40:48.032Z,18.50
2018-06-08T00:43:16.364Z,18.50
2018-06-08T00:45:44.671Z,18.50
2018-06-08T00:48:12.976Z,18.50
2018-06-08T00:50:41.295Z,18.60
2018-06-08T00:53:09.609Z,18.60
2018-06-08T00:55:37.925Z,18.60
2018-06-08T00:58:06.261Z,18.50
2018-06-08T01:00:34.580Z,18.60
2018-06-08T01:03:02.879Z,18.60
2018-06-08T01:05:31.198Z,18.50
2018-06-08T01:07:59.520Z,18.50
2018-06-08T01:10:27.958Z,18.40
2018-06-08T01:12:56.397Z,18.50
2018-06-08T01:17:53.078Z,18.40
2018-06-08T01:20:21.417Z,18.40
2018-06-08T01:22:49.733Z,18.30
2018-06-08T01:25:18.021Z,18.20
2018-06-08T01:27:46.322Z,18.20
2018-06-08T01:30:15.285Z,18.10
2018-06-08T01:32:43.576Z,18.00
2018-06-08T01:35:12.557Z,18.00
2018-06-08T01:37:40.872Z,18.00
2018-06-08T01:40:09.163Z,17.90
2018-06-08T01:42:37.478Z,17.80
2018-06-08T01:45:05.774Z,17.80
2018-06-08T01:47:34.080Z,17.70
2018-06-08T01:50:02.406Z,17.70
2018-06-08T01:52:30.717Z,17.70
2018-06-08T01:54:59.052Z,17.70
2018-06-08T01:57:27.340Z,17.70
2018-06-08T01:59:55.629Z,17.70
2018-06-08T02:02:23.937Z,17.70
2018-06-08T02:04:52.263Z,17.70
2018-06-08T02:07:21.145Z,17.70
2018-06-08T02:09:49.786Z,17.70
2018-06-08T02:12:18.621Z,17.60
2018-06-08T02:14:47.041Z,17.60
2018-06-08T02:17:15.333Z,17.60
2018-06-08T02:19:43.637Z,17.60
2018-06-08T02:22:11.925Z,17.60
2018-06-08T02:24:40.207Z,17.50
2018-06-08T02:27:08.509Z,17.40
2018-06-08T02:29:36.797Z,17.40
2018-06-08T02:32:05.097Z,17.40
2018-06-08T02:34:33.398Z,17.40
2018-06-08T02:37:01.686Z,17.40
2018-06-08T02:39:30.061Z,17.40
2018-06-08T02:41:58.369Z,17.30
2018-06-08T02:44:26.665Z,17.30
2018-06-08T02:46:54.982Z,17.30
2018-06-08T02:49:23.279Z,17.30
2018-06-08T02:51:51.636Z,17.30
2018-06-08T02:54:19.981Z,17.20
2018-06-08T02:56:48.264Z,17.20
2018-06-08T02:59:16.574Z,17.10
2018-06-08T03:01:45.457Z,17.10
2018-06-08T03:04:13.745Z,17.20
2018-06-08T03:06:42.076Z,17.20
2018-06-08T03:09:10.458Z,17.10
2018-06-08T03:11:38.781Z,17.10
2018-06-08T03:14:07.075Z,17.10
2018-06-08T03:16:35.604Z,17.10
2018-06-08T03:19:03.900Z,17.10
2018-06-08T03:21:32.200Z,17.10
2018-06-08T03:24:00.497Z,17.10
2018-06-08T03:26:28.782Z,17.10
2018-06-08T03:28:57.084Z,17.10
2018-06-08T03:31:25.389Z,17.10
2018-06-08T03:33:53.696Z,17.10
2018-06-08T03:36:21.981Z,17.10
2018-06-08T03:38:50.374Z,17.10
2018-06-08T03:41:18.662Z,17.10
2018-06-08T03:43:46.972Z,17.20
2018-06-08T03:46:15.263Z,17.10
2018-06-08T03:48:43.608Z,17.20
2018-06-08T03:51:11.908Z,17.30
2018-06-08T03:53:40.491Z,17.30
2018-06-08T03:56:08.778Z,17.50
2018-06-08T03:58:37.076Z,17.50
2018-06-08T04:01:05.917Z,17.70
2018-06-08T04:03:34.673Z,18.00
2018-06-08T04:06:02.986Z,18.20
2018-06-08T04:08:31.280Z,18.30
2018-06-08T04:10:59.590Z,18.20
2018-06-08T04:13:27.904Z,18.10
2018-06-08T04:15:56.433Z,18.10
2018-06-08T04:18:24.725Z,18.40
2018-06-08T04:20:53.035Z,18.70
2018-06-08T04:23:21.340Z,18.70
2018-06-08T04:25:49.691Z,18.80
2018-06-08T04:30:46.071Z,19.00
2018-06-08T04:33:14.392Z,19.00
2018-06-08T04:35:42.792Z,19.10
2018-06-08T04:38:11.106Z,19.20
2018-06-08T04:43:07.458Z,19.40
2018-06-08T04:48:03.776Z,19.50
2018-06-08T04:50:32.097Z,19.70
2018-06-08T04:53:00.396Z,19.70
2018-06-08T04:55:28.709Z,19.80
2018-06-08T04:57:57.043Z,19.80
2018-06-08T05:00:25.361Z,19.90
2018-06-08T05:02:53.673Z,20.10
2018-06-08T05:05:21.961Z,20.20
2018-06-08T05:07:50.301Z,20.40
2018-06-08T05:10:18.602Z,20.70
2018-06-08T05:12:46.891Z,21.00
2018-06-08T05:15:15.203Z,21.20
2018-06-08T05:17:43.581Z,21.20
2018-06-08T05:20:11.901Z,21.20
2018-06-08T05:22:40.198Z,21.10
2018-06-08T05:27:36.512Z,21.30
2018-06-08T05:30:09.074Z,21.60
2018-06-08T05:32:37.385Z,21.40
2018-06-08T05:37:34.097Z,21.30
2018-06-08T05:40:02.803Z,21.10
2018-06-08T05:42:31.111Z,21.10
2018-06-08T05:47:27.437Z,20.80
2018-06-08T05:49:56.152Z,20.50
2018-06-08T05:52:24.489Z,20.40
2018-06-08T05:54:53.053Z,20.30
2018-06-08T05:57:21.374Z,20.20
2018-06-08T05:59:49.649Z,20.20
2018-06-08T06:02:17.953Z,20.30
2018-06-08T06:04:46.241Z,20.20
2018-06-08T06:07:14.541Z,20.20
2018-06-08T06:09:42.821Z,20.10
2018-06-08T06:12:12.117Z,20.10
2018-06-08T06:14:40.924Z,20.10
2018-06-08T06:17:09.248Z,20.20
2018-06-08T06:19:37.532Z,20.20
2018-06-08T06:22:05.924Z,20.20
2018-06-08T06:24:34.237Z,20.30
2018-06-08T06:27:02.577Z,20.20
2018-06-08T06:29:31.072Z,20.30
2018-06-08T06:31:59.547Z,20.30
2018-06-08T06:34:28.135Z,20.40
2018-06-08T06:36:56.766Z,20.50
2018-06-08T06:39:25.510Z,20.60
2018-06-08T06:41:54.219Z,20.80
2018-06-08T06:44:22.743Z,21.00
2018-06-08T06:46:51.052Z,21.30
2018-06-08T06:49:19.720Z,21.50
2018-06-08T06:51:48.338Z,21.50
2018-06-08T06:54:16.885Z,21.80
2018-06-08T06:56:45.454Z,21.90
2018-06-08T06:59:14.138Z,22.20
2018-06-08T07:01:42.622Z,22.40
2018-06-08T07:04:11.141Z,22.50
2018-06-08T07:06:39.710Z,22.20
2018-06-08T07:09:09.118Z,22.20
2018-06-08T07:11:37.770Z,22.10
2018-06-08T07:14:06.309Z,22.00
2018-06-08T07:16:34.934Z,22.20
2018-06-08T07:19:03.293Z,22.40
2018-06-08T07:21:31.888Z,22.50
2018-06-08T07:24:00.415Z,22.60
2018-06-08T07:26:29.620Z,22.50
2018-06-08T07:28:58.097Z,22.70
2018-06-08T07:31:26.715Z,22.90
2018-06-08T07:33:55.222Z,23.00
2018-06-08T07:36:23.860Z,23.10
2018-06-08T07:38:52.458Z,23.30
2018-06-08T07:41:21.139Z,23.20
2018-06-08T07:43:49.753Z,23.40
2018-06-08T07:46:18.060Z,23.40
2018-06-08T07:48:46.382Z,23.30
2018-06-08T07:51:14.732Z,23.50
2018-06-08T07:53:43.349Z,23.30
2018-06-08T07:56:11.639Z,23.20
2018-06-08T07:58:39.923Z,23.30
2018-06-08T08:01:08.238Z,23.30
2018-06-08T08:03:36.551Z,23.20
2018-06-08T08:06:04.891Z,23.10
2018-06-08T08:08:33.221Z,22.90
2018-06-08T08:11:01.554Z,23.00
2018-06-08T08:13:29.849Z,23.00
2018-06-08T08:15:58.149Z,23.30
2018-06-08T08:18:26.449Z,23.30
2018-06-08T08:23:22.776Z,22.70
2018-06-08T08:25:51.167Z,22.80
2018-06-08T08:28:19.429Z,22.90
2018-06-08T08:30:47.747Z,22.80
2018-06-08T08:33:16.231Z,22.60
2018-06-08T08:35:44.611Z,22.40
2018-06-08T08:38:13.090Z,22.50
2018-06-08T08:40:41.393Z,22.50
2018-06-08T08:43:09.970Z,22.50
2018-06-08T08:45:38.548Z,22.80
2018-06-08T08:48:06.853Z,23.00
2018-06-08T08:50:35.364Z,23.20
2018-06-08T08:53:06.593Z,23.20
2018-06-08T08:55:34.909Z,23.50
2018-06-08T08:58:03.201Z,23.50
2018-06-08T09:00:31.509Z,23.50
2018-06-08T09:02:59.844Z,23.60
2018-06-08T09:05:31.221Z,23.40
2018-06-08T09:07:59.518Z,23.50
2018-06-08T09:10:27.861Z,23.70
2018-06-08T09:12:56.204Z,24.00
2018-06-08T09:15:24.579Z,24.10
2018-06-08T09:17:53.135Z,24.40
2018-06-08T09:20:21.642Z,24.60
2018-06-08T09:22:50.075Z,24.80
2018-06-08T09:25:19.077Z,24.70
2018-06-08T09:27:47.409Z,24.70
2018-06-08T09:30:15.866Z,24.40
2018-06-08T09:32:44.316Z,24.50
2018-06-08T09:35:12.642Z,24.40
2018-06-08T09:37:40.940Z,24.50
2018-06-08T09:40:09.506Z,24.40
2018-06-08T09:42:38.055Z,24.10
2018-06-08T09:45:06.586Z,24.10
2018-06-08T09:47:35.110Z,24.10
2018-06-08T09:50:03.628Z,24.00
2018-06-08T09:52:31.959Z,24.10
2018-06-08T09:55:01.192Z,24.10
2018-06-08T09:59:57.828Z,24.30
2018-06-08T10:02:26.133Z,24.60
2018-06-08T10:04:54.598Z,24.80
2018-06-08T10:07:22.883Z,24.90
2018-06-08T10:09:51.197Z,25.40
2018-06-08T10:12:19.672Z,25.40
2018-06-08T10:14:47.999Z,25.40
2018-06-08T10:17:16.556Z,25.40
2018-06-08T10:19:45.037Z,25.40
2018-06-08T10:22:13.326Z,25.20
2018-06-08T10:24:41.798Z,25.10
2018-06-08T10:27:10.223Z,25.20
2018-06-08T10:29:38.549Z,25.60
2018-06-08T10:32:07.005Z,25.70
2018-06-08T10:34:35.322Z,25.60
2018-06-08T10:37:03.642Z,25.70
2018-06-08T10:39:31.921Z,25.90
2018-06-08T10:42:00.319Z,25.70
2018-06-08T10:44:28.865Z,25.60
2018-06-08T10:46:57.190Z,25.60
2018-06-08T10:49:25.729Z,25.70
2018-06-08T10:51:54.210Z,25.60
2018-06-08T10:54:22.527Z,25.50
2018-06-08T10:56:50.876Z,25.50
2018-06-08T10:59:20.387Z,25.80
2018-06-08T11:01:48.753Z,25.60
2018-06-08T11:04:17.181Z,25.80
2018-06-08T11:06:45.538Z,25.80
2018-06-08T11:09:13.843Z,25.40
2018-06-08T11:11:42.132Z,25.30
2018-06-08T11:14:10.643Z,25.30
2018-06-08T11:16:39.194Z,25.30
2018-06-08T11:19:07.493Z,25.40
2018-06-08T11:21:36.027Z,25.20
2018-06-08T11:24:04.386Z,25.40
2018-06-08T11:26:32.876Z,25.40
2018-06-08T11:29:01.324Z,25.30
2018-06-08T11:31:29.736Z,25.40
2018-06-08T11:33:58.094Z,25.50
2018-06-08T11:36:26.398Z,25.40
2018-06-08T11:38:54.814Z,25.50
2018-06-08T11:41:23.223Z,25.50
2018-06-08T11:43:51.659Z,25.70
2018-06-08T11:46:20.199Z,25.80
2018-06-08T11:48:48.721Z,26.30
2018-06-08T11:51:17.149Z,26.70
2018-06-08T11:53:45.658Z,27.00
2018-06-08T11:56:14.235Z,27.20
2018-06-08T11:58:42.736Z,26.90
2018-06-08T12:01:11.222Z,26.90
2018-06-08T12:03:39.815Z,27.00
2018-06-08T12:06:08.286Z,27.20
2018-06-08T12:08:36.722Z,27.30
2018-06-08T12:11:05.237Z,27.50
2018-06-08T12:13:33.670Z,27.20
2018-06-08T12:16:02.174Z,27.10
2018-06-08T12:18:30.643Z,26.70
2018-06-08T12:20:58.951Z,26.70
2018-06-08T12:23:27.443Z,26.80
2018-06-08T12:25:56.474Z,26.50
2018-06-08T12:28:24.917Z,26.50
2018-06-08T12:30:53.339Z,26.50
2018-06-08T12:33:21.806Z,26.70
2018-06-08T12:35:50.369Z,26.50
2018-06-08T12:38:18.855Z,26.50
2018-06-08T12:40:47.142Z,26.50
2018-06-08T12:43:15.518Z,26.70
2018-06-08T12:45:43.942Z,26.90
2018-06-08T12:48:12.448Z,26.80
2018-06-08T12:50:40.957Z,26.90
2018-06-08T12:53:09.417Z,27.00
2018-06-08T12:55:37.841Z,27.10
2018-06-08T12:58:06.346Z,27.20
2018-06-08T13:00:34.694Z,27.30
2018-06-08T13:03:03.202Z,27.10
2018-06-08T13:05:31.695Z,26.90
2018-06-08T13:08:00.132Z,26.80
2018-06-08T13:10:28.431Z,27.00
2018-06-08T13:12:56.863Z,27.30
2018-06-08T13:15:25.379Z,27.80
2018-06-08T13:17:53.823Z,28.00
2018-06-08T13:20:22.311Z,28.10
2018-06-08T13:22:50.752Z,27.90
2018-06-08T13:25:19.258Z,27.70
2018-06-08T13:27:47.724Z,27.50
2018-06-08T13:30:16.285Z,27.50
2018-06-08T13:32:44.714Z,27.40
2018-06-08T13:35:13.021Z,27.20
2018-06-08T13:37:41.497Z,27.10
2018-06-08T13:40:09.988Z,27.10
2018-06-08T13:42:38.509Z,27.10
2018-06-08T13:45:06.969Z,27.40
2018-06-08T13:47:35.450Z,27.30
2018-06-08T13:50:04.043Z,27.30
2018-06-08T13:52:32.501Z,27.20
2018-06-08T13:55:02.184Z,27.40
2018-06-08T13:57:31.024Z,27.40
2018-06-08T13:59:59.436Z,27.60
2018-06-08T14:02:27.922Z,27.60
2018-06-08T14:04:56.482Z,27.70
2018-06-08T14:07:24.839Z,27.80
2018-06-08T14:09:53.306Z,27.80
2018-06-08T14:12:21.806Z,27.80
2018-06-08T14:14:50.278Z,28.00
2018-06-08T14:17:18.597Z,28.30
2018-06-08T14:19:47.078Z,28.60
2018-06-08T14:22:15.505Z,28.60
2018-06-08T14:24:43.971Z,28.30
2018-06-08T14:27:12.633Z,28.00
2018-06-08T14:29:41.050Z,28.00
2018-06-08T14:32:09.457Z,28.00
2018-06-08T14:34:38.048Z,28.00
2018-06-08T14:37:06.597Z,28.10
2018-06-08T14:39:34.946Z,28.10
2018-06-08T14:42:03.365Z,28.10
2018-06-08T14:44:31.902Z,28.20
2018-06-08T14:47:00.393Z,28.10
2018-06-08T14:49:28.858Z,28.00
2018-06-08T14:51:57.311Z,28.10
2018-06-08T14:54:25.801Z,27.90
2018-06-08T14:56:54.298Z,27.70
2018-06-08T14:59:22.616Z,27.40
2018-06-08T15:01:50.943Z,27.40
2018-06-08T15:04:19.371Z,27.30
2018-06-08T15:06:47.897Z,27.20
2018-06-08T15:09:16.455Z,27.10
2018-06-08T15:11:44.810Z,27.00
2018-06-08T15:14:13.317Z,26.80
2018-06-08T15:16:41.900Z,26.70
2018-06-08T15:19:10.393Z,26.60
2018-06-08T15:21:38.879Z,26.60
2018-06-08T15:24:07.889Z,26.60
2018-06-08T15:26:36.202Z,26.70
2018-06-08T15:29:04.734Z,26.60
2018-06-08T15:31:34.115Z,26.60
2018-06-08T15:34:02.481Z,26.50
2018-06-08T15:36:31.474Z,26.30
2018-06-08T15:39:00.095Z,25.90
2018-06-08T15:41:28.677Z,25.70
2018-06-08T15:43:57.636Z,25.50
2018-06-08T15:46:26.182Z,25.30
2018-06-08T15:48:54.659Z,25.20
2018-06-08T15:51:23.244Z,25.10
2018-06-08T15:53:51.762Z,25.10
2018-06-08T15:56:20.270Z,25.10
2018-06-08T15:58:48.712Z,25.10
2018-06-08T16:01:17.165Z,25.20
2018-06-08T16:03:45.513Z,25.30
2018-06-08T16:06:13.786Z,25.30
2018-06-08T16:08:42.576Z,25.20
2018-06-08T16:11:11.066Z,25.00
2018-06-08T16:13:39.385Z,25.00
2018-06-08T16:16:07.793Z,25.00
2018-06-08T16:18:36.109Z,24.90
2018-06-08T16:21:04.561Z,25.00
2018-06-08T16:23:33.017Z,25.10
2018-06-08T16:26:01.765Z,25.30
2018-06-08T16:28:30.399Z,25.40
2018-06-08T16:30:58.822Z,25.60
2018-06-08T16:33:27.303Z,25.60
2018-06-08T16:35:55.717Z,25.90
2018-06-08T16:38:24.138Z,26.30
2018-06-08T16:40:52.583Z,26.80
2018-06-08T16:43:21.070Z,27.40
2018-06-08T16:48:17.570Z,28.80
2018-06-08T16:50:45.988Z,29.70
2018-06-08T16:53:14.327Z,30.60
2018-06-08T16:55:42.769Z,31.50
2018-06-08T16:58:11.190Z,32.60
2018-06-08T17:00:43.732Z,33.40
2018-06-08T17:03:13.454Z,33.70
2018-06-08T17:05:42.301Z,33.90
2018-06-08T17:08:11.487Z,33.40
2018-06-08T17:10:39.903Z,32.70
2018-06-08T17:13:08.239Z,32.80
2018-06-08T17:15:37.194Z,32.80
2018-06-08T17:18:06.378Z,31.80
2018-06-08T17:20:34.662Z,31.10
2018-06-08T17:23:02.945Z,29.90
2018-06-08T17:25:31.956Z,29.20
2018-06-08T17:28:01.174Z,28.30
2018-06-08T17:30:29.463Z,27.60
2018-06-08T17:32:57.725Z,27.40
2018-06-08T17:35:26.606Z,27.20
2018-06-08T17:37:55.943Z,27.00
2018-06-08T17:40:24.311Z,26.80
2018-06-08T17:42:52.597Z,26.70
2018-06-08T17:45:20.909Z,26.50
2018-06-08T17:47:49.869Z,26.20
2018-06-08T17:50:18.429Z,26.00
2018-06-08T17:52:47.464Z,25.70
2018-06-08T17:55:23.755Z,25.60
2018-06-08T17:57:52.102Z,25.50
2018-06-08T18:00:20.997Z,25.40
2018-06-08T18:02:49.331Z,25.40
2018-06-08T18:05:18.222Z,25.20
2018-06-08T18:07:47.109Z,25.10
2018-06-08T18:10:15.938Z,25.10
2018-06-08T18:12:44.283Z,25.00
2018-06-08T18:15:12.971Z,25.00
2018-06-08T18:17:41.351Z,24.90
2018-06-08T18:20:09.608Z,24.60
2018-06-08T18:22:38.305Z,24.60
2018-06-08T18:25:06.610Z,24.50
2018-06-08T18:27:35.729Z,24.40
2018-06-08T18:30:05.275Z,24.20
2018-06-08T18:32:33.574Z,24.10
2018-06-08T18:35:01.862Z,24.00
2018-06-08T18:37:30.846Z,23.90
2018-06-08T18:39:59.208Z,23.80
2018-06-08T18:42:27.433Z,23.50
2018-06-08T18:44:56.464Z,23.20
2018-06-08T18:47:25.228Z,22.90
2018-06-08T18:49:53.542Z,22.70
2018-06-08T18:52:22.581Z,22.60
2018-06-08T18:54:51.681Z,22.50
2018-06-08T18:57:20.706Z,22.40
2018-06-08T18:59:49.783Z,22.20
2018-06-08T19:02:18.066Z,22.00
2018-06-08T19:04:46.928Z,21.80
2018-06-08T19:07:15.924Z,21.70
2018-06-08T19:09:44.197Z,21.60
2018-06-08T19:14:40.915Z,21.40
2018-06-08T19:17:09.774Z,21.30
2018-06-08T19:19:38.143Z,21.10
2018-06-08T19:22:08.448Z,21.00
2018-06-08T19:24:39.337Z,20.80
2018-06-08T19:27:09.686Z,20.70
2018-06-08T19:29:39.805Z,20.60
2018-06-08T19:32:10.724Z,20.50
2018-06-08T19:34:41.163Z,20.40
2018-06-08T19:37:12.724Z,20.30
2018-06-08T19:39:42.919Z,20.30
2018-06-08T19:42:17.872Z,20.30
2018-06-08T19:44:51.230Z,20.20
2018-06-08T19:47:23.983Z,20.20
2018-06-08T19:49:55.546Z,20.20
2018-06-08T19:52:26.965Z,20.30
2018-06-08T19:54:58.195Z,20.20
2018-06-08T19:57:28.441Z,20.10
2018-06-08T20:02:28.193Z,20.00
2018-06-08T20:04:56.511Z,19.90
2018-06-08T20:07:24.800Z,19.90
2018-06-08T20:09:53.778Z,19.90
2018-06-08T20:12:22.058Z,19.90
2018-06-08T20:14:50.954Z,19.90
2018-06-08T20:17:19.937Z,19.80
2018-06-08T20:19:48.215Z,19.70
2018-06-08T20:22:16.679Z,19.70
2018-06-08T20:24:45.011Z,19.70
2018-06-08T20:27:13.354Z,19.70
2018-06-08T20:29:41.841Z,19.60
2018-06-08T20:32:10.733Z,19.60
2018-06-08T20:34:39.054Z,19.50
2018-06-08T20:37:07.348Z,19.40
2018-06-08T20:39:35.614Z,19.30
2018-06-08T20:42:03.909Z,19.30
2018-06-08T20:44:32.209Z,19.20
2018-06-08T20:47:00.493Z,19.20
2018-06-08T20:49:28.793Z,19.10
2018-06-08T20:52:03.893Z,19.10
2018-06-08T20:54:32.276Z,19.10
2018-06-08T20:57:10.452Z,19.10
2018-06-08T20:59:38.813Z,19.10
2018-06-08T21:02:07.559Z,19.00
2018-06-08T21:04:35.905Z,19.00
2018-06-08T21:07:04.343Z,19.00
2018-06-08T21:09:32.727Z,19.00
2018-06-08T21:12:01.039Z,19.00
2018-06-08T21:14:29.393Z,19.00
2018-06-08T21:16:57.712Z,18.90
2018-06-08T21:19:26.075Z,18.90
2018-06-08T21:21:54.438Z,18.90
2018-06-08T21:24:22.778Z,18.80
2018-06-08T21:26:51.144Z,18.90
2018-06-08T21:29:19.487Z,18.90
2018-06-08T21:31:47.795Z,18.80
2018-06-08T21:34:16.128Z,18.80
2018-06-08T21:36:44.497Z,18.80
2018-06-08T21:39:12.783Z,18.70
2018-06-08T21:41:41.082Z,18.70
2018-06-08T21:44:09.470Z,18.70
2018-06-08T21:46:37.846Z,18.70
2018-06-08T21:49:06.802Z,18.70
2018-06-08T21:51:35.162Z,18.70
2018-06-08T21:54:03.480Z,18.70
2018-06-08T21:56:32.181Z,18.70
2018-06-08T21:59:00.535Z,18.70
2018-06-08T22:01:28.881Z,18.60
2018-06-08T22:03:57.219Z,18.60
2018-06-08T22:06:25.529Z,18.60
2018-06-08T22:11:21.853Z,18.50
2018-06-08T22:13:50.135Z,18.60
2018-06-08T22:16:18.584Z,18.60
2018-06-08T22:18:47.008Z,18.60
2018-06-08T22:21:15.329Z,18.60
2018-06-08T22:23:43.641Z,18.50
2018-06-08T22:26:11.989Z,18.50
2018-06-08T22:28:40.261Z,18.50
2018-06-08T22:31:08.565Z,18.50
2018-06-08T22:33:36.881Z,18.50
2018-06-08T22:38:33.264Z,18.60
2018-06-08T22:41:01.631Z,18.50
2018-06-08T22:43:30.117Z,18.50
2018-06-08T22:45:58.437Z,18.50
2018-06-08T22:48:26.732Z,18.50
2018-06-08T22:50:55.034Z,18.50
2018-06-08T22:53:23.320Z,18.50
2018-06-08T22:55:51.617Z,18.40
2018-06-08T22:58:19.922Z,18.40
2018-06-08T23:00:48.267Z,18.30
2018-06-08T23:03:16.597Z,18.30
2018-06-08T23:05:44.921Z,18.20
2018-06-08T23:08:13.205Z,18.20
2018-06-08T23:10:41.512Z,18.10
2018-06-08T23:13:09.922Z,18.00
2018-06-08T23:15:38.259Z,18.00
2018-06-08T23:18:06.548Z,18.00
2018-06-08T23:20:34.973Z,18.00
2018-06-08T23:23:03.285Z,17.90
2018-06-08T23:25:31.574Z,17.90
2018-06-08T23:27:59.951Z,17.90
2018-06-08T23:30:28.250Z,17.90
2018-06-08T23:32:56.529Z,18.00
2018-06-08T23:35:24.995Z,18.00
2018-06-08T23:37:53.361Z,18.10
2018-06-08T23:40:21.656Z,18.10
2018-06-08T23:42:52.930Z,18.10
2018-06-08T23:45:21.221Z,18.00
2018-06-08T23:47:49.534Z,18.00
2018-06-08T23:50:17.930Z,18.10
2018-06-08T23:52:46.209Z,18.10
2018-06-08T23:55:14.496Z,18.10
2018-06-08T23:57:42.830Z,18.00
